sensor_id;sensor_type;location;lat;lon;timestamp;P1;durP1;ratioP1;P2;durP2;ratioP2
45232;SDS011;30969;51.052;17.056;2023-02-28T00:00:39;35.63;;;19.05;;
45232;SDS011;30969;51.052;17.056;2023-02-28T00:05:51;38.67;;;18.80;;
45232;SDS011;30969;51.052;17.056;2023-02-28T00:10:55;33.55;;;17.55;;
45232;SDS011;30969;51.052;17.056;2023-02-28T00:16:01;34.15;;;16.75;;
45232;SDS011;30969;51.052;17.056;2023-02-28T00:21:05;32.78;;;15.93;;
45232;SDS011;30969;51.052;17.056;2023-02-28T00:26:09;35.80;;;16.90;;
45232;SDS011;30969;51.052;17.056;2023-02-28T00:31:14;33.63;;;16.60;;
45232;SDS011;30969;51.052;17.056;2023-02-28T00:36:18;29.83;;;15.48;;
45232;SDS011;30969;51.052;17.056;2023-02-28T00:41:21;33.55;;;16.33;;
45232;SDS011;30969;51.052;17.056;2023-02-28T00:46:28;37.65;;;17.08;;
45232;SDS011;30969;51.052;17.056;2023-02-28T00:51:32;40.30;;;19.50;;
45232;SDS011;30969;51.052;17.056;2023-02-28T00:56:35;33.88;;;16.60;;
45232;SDS011;30969;51.052;17.056;2023-02-28T01:01:40;33.05;;;16.48;;
45232;SDS011;30969;51.052;17.056;2023-02-28T01:06:44;32.88;;;16.63;;
45232;SDS011;30969;51.052;17.056;2023-02-28T01:11:50;36.20;;;16.77;;
45232;SDS011;30969;51.052;17.056;2023-02-28T01:16:55;27.80;;;14.52;;
45232;SDS011;30969;51.052;17.056;2023-02-28T01:22:00;29.30;;;15.65;;
45232;SDS011;30969;51.052;17.056;2023-02-28T01:27:04;29.20;;;14.65;;
45232;SDS011;30969;51.052;17.056;2023-02-28T01:32:09;27.50;;;14.20;;
45232;SDS011;30969;51.052;17.056;2023-02-28T01:37:13;24.80;;;14.40;;
45232;SDS011;30969;51.052;17.056;2023-02-28T01:42:16;27.80;;;13.38;;
45232;SDS011;30969;51.052;17.056;2023-02-28T01:47:21;27.35;;;13.20;;
45232;SDS011;30969;51.052;17.056;2023-02-28T01:52:25;25.42;;;14.05;;
45232;SDS011;30969;51.052;17.056;2023-02-28T01:57:30;28.60;;;15.00;;
45232;SDS011;30969;51.052;17.056;2023-02-28T02:02:41;33.88;;;15.73;;
45232;SDS011;30969;51.052;17.056;2023-02-28T02:07:46;26.48;;;14.25;;
45232;SDS011;30969;51.052;17.056;2023-02-28T02:18:24;26.75;;;13.40;;
45232;SDS011;30969;51.052;17.056;2023-02-28T02:23:39;26.50;;;14.70;;
45232;SDS011;30969;51.052;17.056;2023-02-28T02:35:02;31.80;;;14.68;;
45232;SDS011;30969;51.052;17.056;2023-02-28T02:40:16;33.92;;;15.43;;
45232;SDS011;30969;51.052;17.056;2023-02-28T02:45:24;30.02;;;15.75;;
45232;SDS011;30969;51.052;17.056;2023-02-28T02:50:39;28.15;;;15.80;;
45232;SDS011;30969;51.052;17.056;2023-02-28T02:55:47;30.75;;;16.30;;
45232;SDS011;30969;51.052;17.056;2023-02-28T03:00:56;28.05;;;14.75;;
45232;SDS011;30969;51.052;17.056;2023-02-28T03:06:04;36.05;;;15.63;;
45232;SDS011;30969;51.052;17.056;2023-02-28T03:11:11;27.20;;;13.63;;
45232;SDS011;30969;51.052;17.056;2023-02-28T03:21:43;29.92;;;15.48;;
45232;SDS011;30969;51.052;17.056;2023-02-28T03:26:52;33.13;;;15.75;;
45232;SDS011;30969;51.052;17.056;2023-02-28T03:32:03;25.50;;;13.68;;
45232;SDS011;30969;51.052;17.056;2023-02-28T03:37:15;29.52;;;15.10;;
45232;SDS011;30969;51.052;17.056;2023-02-28T03:42:23;29.27;;;15.05;;
45232;SDS011;30969;51.052;17.056;2023-02-28T03:47:31;29.00;;;13.85;;
45232;SDS011;30969;51.052;17.056;2023-02-28T03:52:42;32.70;;;15.52;;
45232;SDS011;30969;51.052;17.056;2023-02-28T03:57:53;30.30;;;14.55;;
45232;SDS011;30969;51.052;17.056;2023-02-28T04:03:03;31.17;;;14.60;;
45232;SDS011;30969;51.052;17.056;2023-02-28T04:08:08;30.10;;;15.10;;
45232;SDS011;30969;51.052;17.056;2023-02-28T04:13:12;30.15;;;15.48;;
45232;SDS011;30969;51.052;17.056;2023-02-28T04:18:15;26.83;;;15.02;;
45232;SDS011;30969;51.052;17.056;2023-02-28T04:23:20;34.10;;;15.63;;
45232;SDS011;30969;51.052;17.056;2023-02-28T04:28:23;30.20;;;15.35;;
45232;SDS011;30969;51.052;17.056;2023-02-28T04:33:27;35.03;;;14.77;;
45232;SDS011;30969;51.052;17.056;2023-02-28T04:38:33;29.63;;;13.48;;
45232;SDS011;30969;51.052;17.056;2023-02-28T04:43:38;26.92;;;14.32;;
45232;SDS011;30969;51.052;17.056;2023-02-28T04:48:41;28.20;;;14.85;;
45232;SDS011;30969;51.052;17.056;2023-02-28T04:53:47;28.42;;;13.32;;
45232;SDS011;30969;51.052;17.056;2023-02-28T04:58:51;23.92;;;13.07;;
45232;SDS011;30969;51.052;17.056;2023-02-28T05:03:56;30.92;;;14.90;;
45232;SDS011;30969;51.052;17.056;2023-02-28T05:09:02;22.48;;;13.23;;
45232;SDS011;30969;51.052;17.056;2023-02-28T05:14:06;29.63;;;14.25;;
45232;SDS011;30969;51.052;17.056;2023-02-28T05:19:13;30.23;;;14.85;;
45232;SDS011;30969;51.052;17.056;2023-02-28T05:24:18;33.63;;;15.98;;
45232;SDS011;30969;51.052;17.056;2023-02-28T05:29:24;33.33;;;16.38;;
45232;SDS011;30969;51.052;17.056;2023-02-28T05:34:28;32.35;;;16.77;;
45232;SDS011;30969;51.052;17.056;2023-02-28T05:39:32;38.03;;;17.42;;
45232;SDS011;30969;51.052;17.056;2023-02-28T05:44:36;33.63;;;16.42;;
45232;SDS011;30969;51.052;17.056;2023-02-28T05:49:39;34.00;;;17.83;;
45232;SDS011;30969;51.052;17.056;2023-02-28T05:54:44;40.15;;;18.67;;
45232;SDS011;30969;51.052;17.056;2023-02-28T05:59:49;36.75;;;18.02;;
45232;SDS011;30969;51.052;17.056;2023-02-28T06:04:52;30.52;;;16.10;;
45232;SDS011;30969;51.052;17.056;2023-02-28T06:09:57;29.67;;;15.55;;
45232;SDS011;30969;51.052;17.056;2023-02-28T06:15:01;28.98;;;15.05;;
45232;SDS011;30969;51.052;17.056;2023-02-28T06:20:06;24.45;;;14.70;;
45232;SDS011;30969;51.052;17.056;2023-02-28T06:25:12;25.98;;;13.65;;
45232;SDS011;30969;51.052;17.056;2023-02-28T06:30:15;26.95;;;14.27;;
45232;SDS011;30969;51.052;17.056;2023-02-28T06:35:19;27.80;;;14.30;;
45232;SDS011;30969;51.052;17.056;2023-02-28T06:40:24;25.90;;;13.63;;
45232;SDS011;30969;51.052;17.056;2023-02-28T06:45:28;28.73;;;14.55;;
45232;SDS011;30969;51.052;17.056;2023-02-28T06:50:32;24.23;;;13.63;;
45232;SDS011;30969;51.052;17.056;2023-02-28T06:55:38;25.65;;;15.02;;
45232;SDS011;30969;51.052;17.056;2023-02-28T07:00:42;27.27;;;15.18;;
45232;SDS011;30969;51.052;17.056;2023-02-28T07:05:46;23.67;;;13.70;;
45232;SDS011;30969;51.052;17.056;2023-02-28T07:10:52;27.15;;;14.48;;
45232;SDS011;30969;51.052;17.056;2023-02-28T07:15:56;32.47;;;16.23;;
45232;SDS011;30969;51.052;17.056;2023-02-28T07:21:02;19.17;;;11.82;;
45232;SDS011;30969;51.052;17.056;2023-02-28T07:26:09;20.42;;;11.40;;
45232;SDS011;30969;51.052;17.056;2023-02-28T07:31:16;21.75;;;11.88;;
45232;SDS011;30969;51.052;17.056;2023-02-28T07:36:21;15.45;;;9.95;;
45232;SDS011;30969;51.052;17.056;2023-02-28T07:41:25;17.65;;;10.15;;
45232;SDS011;30969;51.052;17.056;2023-02-28T07:46:29;16.20;;;9.38;;
45232;SDS011;30969;51.052;17.056;2023-02-28T07:51:37;10.77;;;8.52;;
45232;SDS011;30969;51.052;17.056;2023-02-28T07:56:42;14.23;;;9.30;;
45232;SDS011;30969;51.052;17.056;2023-02-28T08:01:46;16.23;;;9.45;;
45232;SDS011;30969;51.052;17.056;2023-02-28T08:06:52;17.20;;;9.75;;
45232;SDS011;30969;51.052;17.056;2023-02-28T08:11:57;19.50;;;10.32;;
45232;SDS011;30969;51.052;17.056;2023-02-28T08:17:02;18.65;;;9.48;;
45232;SDS011;30969;51.052;17.056;2023-02-28T08:22:07;15.48;;;10.00;;
45232;SDS011;30969;51.052;17.056;2023-02-28T08:27:11;14.25;;;9.43;;
45232;SDS011;30969;51.052;17.056;2023-02-28T08:32:31;15.70;;;9.38;;
45232;SDS011;30969;51.052;17.056;2023-02-28T08:37:35;15.20;;;9.63;;
45232;SDS011;30969;51.052;17.056;2023-02-28T08:42:40;16.38;;;9.70;;
45232;SDS011;30969;51.052;17.056;2023-02-28T08:47:44;18.58;;;10.13;;
45232;SDS011;30969;51.052;17.056;2023-02-28T08:52:47;15.35;;;8.90;;
45232;SDS011;30969;51.052;17.056;2023-02-28T08:57:52;14.70;;;9.23;;
45232;SDS011;30969;51.052;17.056;2023-02-28T09:02:56;16.40;;;9.38;;
45232;SDS011;30969;51.052;17.056;2023-02-28T09:08:00;15.80;;;10.18;;
45232;SDS011;30969;51.052;17.056;2023-02-28T09:13:07;17.83;;;9.13;;
45232;SDS011;30969;51.052;17.056;2023-02-28T09:18:10;15.40;;;7.97;;
45232;SDS011;30969;51.052;17.056;2023-02-28T09:23:14;8.27;;;5.35;;
45232;SDS011;30969;51.052;17.056;2023-02-28T09:28:20;9.93;;;4.90;;
45232;SDS011;30969;51.052;17.056;2023-02-28T09:33:24;13.82;;;6.50;;
45232;SDS011;30969;51.052;17.056;2023-02-28T09:38:29;9.73;;;5.72;;
45232;SDS011;30969;51.052;17.056;2023-02-28T09:43:35;9.05;;;6.00;;
45232;SDS011;30969;51.052;17.056;2023-02-28T09:48:44;10.73;;;6.95;;
45232;SDS011;30969;51.052;17.056;2023-02-28T09:53:50;13.25;;;5.47;;
45232;SDS011;30969;51.052;17.056;2023-02-28T09:59:04;9.70;;;6.18;;
45232;SDS011;30969;51.052;17.056;2023-02-28T10:04:16;10.60;;;6.45;;
45232;SDS011;30969;51.052;17.056;2023-02-28T10:09:30;11.27;;;6.75;;
45232;SDS011;30969;51.052;17.056;2023-02-28T10:14:37;11.27;;;6.63;;
45232;SDS011;30969;51.052;17.056;2023-02-28T10:19:44;10.82;;;6.40;;
45232;SDS011;30969;51.052;17.056;2023-02-28T10:24:55;9.65;;;6.40;;
45232;SDS011;30969;51.052;17.056;2023-02-28T10:30:10;13.90;;;6.80;;
45232;SDS011;30969;51.052;17.056;2023-02-28T10:35:16;11.55;;;6.45;;
45232;SDS011;30969;51.052;17.056;2023-02-28T10:40:26;10.73;;;7.43;;
45232;SDS011;30969;51.052;17.056;2023-02-28T10:45:35;9.23;;;6.00;;
45232;SDS011;30969;51.052;17.056;2023-02-28T10:50:42;9.38;;;6.07;;
45232;SDS011;30969;51.052;17.056;2023-02-28T10:55:56;9.27;;;5.32;;
45232;SDS011;30969;51.052;17.056;2023-02-28T11:01:04;14.00;;;6.95;;
45232;SDS011;30969;51.052;17.056;2023-02-28T11:06:08;9.90;;;6.18;;
45232;SDS011;30969;51.052;17.056;2023-02-28T11:11:18;10.07;;;6.53;;
45232;SDS011;30969;51.052;17.056;2023-02-28T11:16:32;9.10;;;5.60;;
45232;SDS011;30969;51.052;17.056;2023-02-28T11:21:37;10.13;;;6.68;;
45232;SDS011;30969;51.052;17.056;2023-02-28T11:26:43;15.82;;;6.60;;
45232;SDS011;30969;51.052;17.056;2023-02-28T11:32:02;13.55;;;7.13;;
45232;SDS011;30969;51.052;17.056;2023-02-28T11:37:15;9.32;;;5.90;;
45232;SDS011;30969;51.052;17.056;2023-02-28T11:42:24;10.35;;;7.10;;
45232;SDS011;30969;51.052;17.056;2023-02-28T11:47:42;10.95;;;6.18;;
45232;SDS011;30969;51.052;17.056;2023-02-28T11:52:52;11.98;;;7.43;;
45232;SDS011;30969;51.052;17.056;2023-02-28T11:58:00;13.27;;;7.60;;
45232;SDS011;30969;51.052;17.056;2023-02-28T12:03:23;13.75;;;7.32;;
45232;SDS011;30969;51.052;17.056;2023-02-28T12:08:40;16.35;;;7.88;;
45232;SDS011;30969;51.052;17.056;2023-02-28T12:13:55;9.90;;;6.93;;
45232;SDS011;30969;51.052;17.056;2023-02-28T12:19:21;10.65;;;6.75;;
45232;SDS011;30969;51.052;17.056;2023-02-28T12:24:31;11.55;;;6.20;;
45232;SDS011;30969;51.052;17.056;2023-02-28T12:29:56;10.93;;;6.35;;
45232;SDS011;30969;51.052;17.056;2023-02-28T12:35:06;11.38;;;6.38;;
45232;SDS011;30969;51.052;17.056;2023-02-28T12:40:17;10.95;;;6.53;;
45232;SDS011;30969;51.052;17.056;2023-02-28T12:45:24;9.82;;;6.82;;
45232;SDS011;30969;51.052;17.056;2023-02-28T12:50:34;16.23;;;8.57;;
45232;SDS011;30969;51.052;17.056;2023-02-28T12:55:40;19.25;;;9.45;;
45232;SDS011;30969;51.052;17.056;2023-02-28T13:00:55;17.42;;;8.88;;
45232;SDS011;30969;51.052;17.056;2023-02-28T13:06:19;15.38;;;8.77;;
45232;SDS011;30969;51.052;17.056;2023-02-28T13:11:32;15.30;;;9.05;;
45232;SDS011;30969;51.052;17.056;2023-02-28T13:16:48;15.48;;;8.90;;
45232;SDS011;30969;51.052;17.056;2023-02-28T13:22:01;19.77;;;9.90;;
45232;SDS011;30969;51.052;17.056;2023-02-28T13:27:21;13.82;;;8.50;;
45232;SDS011;30969;51.052;17.056;2023-02-28T13:32:38;13.60;;;8.65;;
45232;SDS011;30969;51.052;17.056;2023-02-28T13:37:46;18.05;;;9.52;;
45232;SDS011;30969;51.052;17.056;2023-02-28T13:42:53;15.80;;;10.00;;
45232;SDS011;30969;51.052;17.056;2023-02-28T13:48:00;17.45;;;9.75;;
45232;SDS011;30969;51.052;17.056;2023-02-28T13:58:46;17.30;;;9.80;;
45232;SDS011;30969;51.052;17.056;2023-02-28T14:04:03;19.27;;;9.32;;
45232;SDS011;30969;51.052;17.056;2023-02-28T14:09:27;17.30;;;9.70;;
45232;SDS011;30969;51.052;17.056;2023-02-28T14:19:58;19.30;;;10.75;;
45232;SDS011;30969;51.052;17.056;2023-02-28T14:25:08;23.60;;;12.57;;
45232;SDS011;30969;51.052;17.056;2023-02-28T14:30:37;21.55;;;12.98;;
45232;SDS011;30969;51.052;17.056;2023-02-28T14:41:06;20.50;;;11.52;;
45232;SDS011;30969;51.052;17.056;2023-02-28T14:46:19;21.73;;;12.00;;
45232;SDS011;30969;51.052;17.056;2023-02-28T14:51:23;23.77;;;13.75;;
45232;SDS011;30969;51.052;17.056;2023-02-28T14:56:30;24.10;;;13.75;;
45232;SDS011;30969;51.052;17.056;2023-02-28T15:01:37;19.40;;;11.68;;
45232;SDS011;30969;51.052;17.056;2023-02-28T15:06:41;19.02;;;12.13;;
45232;SDS011;30969;51.052;17.056;2023-02-28T15:11:47;22.70;;;11.55;;
45232;SDS011;30969;51.052;17.056;2023-02-28T15:16:52;21.77;;;11.60;;
45232;SDS011;30969;51.052;17.056;2023-02-28T15:22:02;21.80;;;11.70;;
45232;SDS011;30969;51.052;17.056;2023-02-28T15:27:12;20.10;;;10.15;;
45232;SDS011;30969;51.052;17.056;2023-02-28T15:32:21;21.27;;;11.35;;
45232;SDS011;30969;51.052;17.056;2023-02-28T15:37:39;19.45;;;10.90;;
45232;SDS011;30969;51.052;17.056;2023-02-28T15:42:58;17.80;;;10.15;;
45232;SDS011;30969;51.052;17.056;2023-02-28T15:48:12;19.05;;;10.18;;
45232;SDS011;30969;51.052;17.056;2023-02-28T15:53:20;20.73;;;10.17;;
45232;SDS011;30969;51.052;17.056;2023-02-28T15:58:27;19.67;;;10.70;;
45232;SDS011;30969;51.052;17.056;2023-02-28T16:03:35;18.83;;;10.57;;
45232;SDS011;30969;51.052;17.056;2023-02-28T16:08:48;19.20;;;10.57;;
45232;SDS011;30969;51.052;17.056;2023-02-28T16:13:54;15.20;;;9.85;;
45232;SDS011;30969;51.052;17.056;2023-02-28T16:18:58;19.38;;;11.05;;
45232;SDS011;30969;51.052;17.056;2023-02-28T16:24:01;20.48;;;11.38;;
45232;SDS011;30969;51.052;17.056;2023-02-28T16:29:06;19.95;;;11.77;;
45232;SDS011;30969;51.052;17.056;2023-02-28T16:34:14;18.65;;;11.05;;
45232;SDS011;30969;51.052;17.056;2023-02-28T16:39:17;26.27;;;13.07;;
45232;SDS011;30969;51.052;17.056;2023-02-28T16:44:26;23.45;;;13.00;;
45232;SDS011;30969;51.052;17.056;2023-02-28T16:49:31;30.15;;;15.35;;
45232;SDS011;30969;51.052;17.056;2023-02-28T16:54:34;22.25;;;11.95;;
45232;SDS011;30969;51.052;17.056;2023-02-28T16:59:39;20.27;;;11.93;;
45232;SDS011;30969;51.052;17.056;2023-02-28T17:04:43;21.27;;;11.50;;
45232;SDS011;30969;51.052;17.056;2023-02-28T17:09:47;22.52;;;12.75;;
45232;SDS011;30969;51.052;17.056;2023-02-28T17:14:52;23.27;;;13.38;;
45232;SDS011;30969;51.052;17.056;2023-02-28T17:19:56;28.92;;;14.55;;
45232;SDS011;30969;51.052;17.056;2023-02-28T17:24:59;31.02;;;16.05;;
45232;SDS011;30969;51.052;17.056;2023-02-28T17:30:10;29.65;;;17.05;;
45232;SDS011;30969;51.052;17.056;2023-02-28T17:35:18;37.75;;;20.92;;
45232;SDS011;30969;51.052;17.056;2023-02-28T17:40:22;39.97;;;21.08;;
45232;SDS011;30969;51.052;17.056;2023-02-28T17:45:27;33.42;;;18.08;;
45232;SDS011;30969;51.052;17.056;2023-02-28T17:50:31;36.00;;;19.92;;
45232;SDS011;30969;51.052;17.056;2023-02-28T17:55:35;38.85;;;20.25;;
45232;SDS011;30969;51.052;17.056;2023-02-28T18:00:40;39.03;;;22.30;;
45232;SDS011;30969;51.052;17.056;2023-02-28T18:05:44;45.35;;;24.33;;
45232;SDS011;30969;51.052;17.056;2023-02-28T18:10:47;69.45;;;38.35;;
45232;SDS011;30969;51.052;17.056;2023-02-28T18:15:52;56.88;;;31.45;;
45232;SDS011;30969;51.052;17.056;2023-02-28T18:20:56;45.97;;;26.30;;
45232;SDS011;30969;51.052;17.056;2023-02-28T18:25:59;47.95;;;25.50;;
45232;SDS011;30969;51.052;17.056;2023-02-28T18:31:07;78.63;;;34.30;;
45232;SDS011;30969;51.052;17.056;2023-02-28T18:36:11;68.10;;;32.40;;
45232;SDS011;30969;51.052;17.056;2023-02-28T18:41:15;62.67;;;30.98;;
45232;SDS011;30969;51.052;17.056;2023-02-28T18:46:23;54.53;;;26.50;;
45232;SDS011;30969;51.052;17.056;2023-02-28T18:51:28;57.35;;;29.75;;
45232;SDS011;30969;51.052;17.056;2023-02-28T18:56:32;54.67;;;30.38;;
45232;SDS011;30969;51.052;17.056;2023-02-28T19:01:37;57.92;;;29.95;;
45232;SDS011;30969;51.052;17.056;2023-02-28T19:06:41;53.63;;;29.23;;
45232;SDS011;30969;51.052;17.056;2023-02-28T19:11:45;56.85;;;29.92;;
45232;SDS011;30969;51.052;17.056;2023-02-28T19:16:50;60.50;;;32.28;;
45232;SDS011;30969;51.052;17.056;2023-02-28T19:21:53;53.17;;;27.60;;
45232;SDS011;30969;51.052;17.056;2023-02-28T19:26:57;57.05;;;27.50;;
45232;SDS011;30969;51.052;17.056;2023-02-28T19:32:02;54.97;;;28.58;;
45232;SDS011;30969;51.052;17.056;2023-02-28T19:37:05;57.70;;;31.08;;
45232;SDS011;30969;51.052;17.056;2023-02-28T19:42:09;63.83;;;34.55;;
45232;SDS011;30969;51.052;17.056;2023-02-28T19:47:16;61.90;;;32.28;;
45232;SDS011;30969;51.052;17.056;2023-02-28T19:52:19;61.40;;;32.28;;
45232;SDS011;30969;51.052;17.056;2023-02-28T19:57:23;79.43;;;37.30;;
45232;SDS011;30969;51.052;17.056;2023-02-28T20:02:28;75.50;;;37.20;;
45232;SDS011;30969;51.052;17.056;2023-02-28T20:07:32;73.35;;;37.60;;
45232;SDS011;30969;51.052;17.056;2023-02-28T20:12:35;84.80;;;41.50;;
45232;SDS011;30969;51.052;17.056;2023-02-28T20:17:40;139.25;;;58.05;;
45232;SDS011;30969;51.052;17.056;2023-02-28T20:22:43;150.63;;;64.28;;
45232;SDS011;30969;51.052;17.056;2023-02-28T20:27:47;112.97;;;51.25;;
45232;SDS011;30969;51.052;17.056;2023-02-28T20:32:52;98.22;;;43.08;;
45232;SDS011;30969;51.052;17.056;2023-02-28T20:37:55;89.75;;;42.35;;
45232;SDS011;30969;51.052;17.056;2023-02-28T20:42:59;82.45;;;38.10;;
45232;SDS011;30969;51.052;17.056;2023-02-28T20:48:04;73.07;;;35.35;;
45232;SDS011;30969;51.052;17.056;2023-02-28T20:53:08;71.20;;;34.95;;
45232;SDS011;30969;51.052;17.056;2023-02-28T20:58:11;66.50;;;32.42;;
45232;SDS011;30969;51.052;17.056;2023-02-28T21:03:16;66.82;;;32.67;;
45232;SDS011;30969;51.052;17.056;2023-02-28T21:08:19;65.60;;;31.30;;
45232;SDS011;30969;51.052;17.056;2023-02-28T21:13:23;65.68;;;31.48;;
45232;SDS011;30969;51.052;17.056;2023-02-28T21:18:28;60.78;;;31.17;;
45232;SDS011;30969;51.052;17.056;2023-02-28T21:23:32;64.00;;;32.35;;
45232;SDS011;30969;51.052;17.056;2023-02-28T21:28:36;77.45;;;35.35;;
45232;SDS011;30969;51.052;17.056;2023-02-28T21:33:46;107.65;;;49.50;;
45232;SDS011;30969;51.052;17.056;2023-02-28T21:38:53;99.30;;;41.00;;
45232;SDS011;30969;51.052;17.056;2023-02-28T21:43:58;89.57;;;40.10;;
45232;SDS011;30969;51.052;17.056;2023-02-28T21:49:03;96.40;;;39.33;;
45232;SDS011;30969;51.052;17.056;2023-02-28T21:54:06;95.20;;;38.63;;
45232;SDS011;30969;51.052;17.056;2023-02-28T21:59:11;83.65;;;37.85;;
45232;SDS011;30969;51.052;17.056;2023-02-28T22:04:16;70.68;;;35.25;;
45232;SDS011;30969;51.052;17.056;2023-02-28T22:09:23;75.97;;;36.55;;
45232;SDS011;30969;51.052;17.056;2023-02-28T22:14:27;72.00;;;37.63;;
45232;SDS011;30969;51.052;17.056;2023-02-28T22:19:31;67.35;;;32.13;;
45232;SDS011;30969;51.052;17.056;2023-02-28T22:24:38;70.70;;;33.53;;
45232;SDS011;30969;51.052;17.056;2023-02-28T22:29:41;70.22;;;33.22;;
45232;SDS011;30969;51.052;17.056;2023-02-28T22:34:48;68.05;;;33.97;;
45232;SDS011;30969;51.052;17.056;2023-02-28T22:39:52;70.47;;;34.40;;
45232;SDS011;30969;51.052;17.056;2023-02-28T22:44:55;65.50;;;31.30;;
45232;SDS011;30969;51.052;17.056;2023-02-28T22:50:00;68.85;;;31.88;;
45232;SDS011;30969;51.052;17.056;2023-02-28T22:55:04;79.35;;;35.65;;
45232;SDS011;30969;51.052;17.056;2023-02-28T23:00:09;87.97;;;38.78;;
45232;SDS011;30969;51.052;17.056;2023-02-28T23:05:17;120.07;;;49.65;;
45232;SDS011;30969;51.052;17.056;2023-02-28T23:10:21;124.35;;;54.70;;
45232;SDS011;30969;51.052;17.056;2023-02-28T23:15:24;105.03;;;48.95;;
45232;SDS011;30969;51.052;17.056;2023-02-28T23:20:29;101.22;;;47.08;;
45232;SDS011;30969;51.052;17.056;2023-02-28T23:25:37;90.45;;;45.47;;
45232;SDS011;30969;51.052;17.056;2023-02-28T23:30:44;91.45;;;43.33;;
45232;SDS011;30969;51.052;17.056;2023-02-28T23:35:48;84.35;;;40.17;;
45232;SDS011;30969;51.052;17.056;2023-02-28T23:40:52;83.30;;;40.00;;
45232;SDS011;30969;51.052;17.056;2023-02-28T23:45:56;68.40;;;34.75;;
45232;SDS011;30969;51.052;17.056;2023-02-28T23:51:02;61.20;;;34.28;;
45232;SDS011;30969;51.052;17.056;2023-02-28T23:56:10;69.45;;;36.47;;
